createdAt,value
2023-05-04T00:00:29.552Z,9.35
2023-05-04T00:03:15.016Z,9.36
2023-05-04T00:06:00.059Z,9.34
2023-05-04T00:08:45.495Z,9.33
2023-05-04T00:11:30.759Z,9.24
2023-05-04T00:14:16.058Z,9.18
2023-05-04T00:17:02.969Z,9.11
2023-05-04T00:19:48.105Z,9.01
2023-05-04T00:22:34.107Z,8.89
2023-05-04T00:25:19.492Z,8.85
2023-05-04T00:28:05.065Z,8.80
2023-05-04T00:30:52.602Z,8.76
2023-05-04T00:33:37.781Z,8.77
2023-05-04T00:36:23.169Z,8.75
2023-05-04T00:39:08.625Z,8.71
2023-05-04T00:41:54.064Z,8.68
2023-05-04T00:44:41.492Z,8.67
2023-05-04T00:47:27.139Z,8.65
2023-05-04T00:50:12.788Z,8.66
2023-05-04T00:53:01.342Z,8.64
2023-05-04T00:55:46.504Z,8.62
2023-05-04T00:58:32.863Z,8.62
2023-05-04T01:01:18.119Z,8.60
2023-05-04T01:04:04.003Z,8.60
2023-05-04T01:07:08.497Z,8.54
2023-05-04T01:10:02.307Z,8.52
2023-05-04T01:12:55.261Z,8.54
2023-05-04T01:15:41.656Z,8.54
2023-05-04T01:18:26.929Z,8.50
2023-05-04T01:21:12.277Z,8.48
2023-05-04T01:23:59.057Z,8.46
2023-05-04T01:26:46.616Z,8.48
2023-05-04T01:29:42.570Z,8.46
2023-05-04T01:32:29.808Z,8.45
2023-05-04T01:35:17.257Z,8.44
2023-05-04T01:38:05.367Z,8.44
2023-05-04T01:40:51.204Z,8.41
2023-05-04T01:43:36.377Z,8.43
2023-05-04T01:46:23.219Z,8.44
2023-05-04T01:49:08.564Z,8.46
2023-05-04T01:51:53.657Z,8.49
2023-05-04T01:54:39.177Z,8.55
2023-05-04T01:57:24.652Z,8.59
2023-05-04T02:00:11.055Z,8.58
2023-05-04T02:03:02.915Z,8.57
2023-05-04T02:05:48.167Z,8.54
2023-05-04T02:08:34.526Z,8.52
2023-05-04T02:11:19.908Z,8.43
2023-05-04T02:14:05.416Z,8.42
2023-05-04T02:16:50.821Z,8.38
2023-05-04T02:19:35.855Z,8.35
2023-05-04T02:22:21.205Z,8.35
2023-05-04T02:25:07.487Z,8.37
2023-05-04T02:27:52.859Z,8.41
2023-05-04T02:30:38.076Z,8.38
2023-05-04T02:33:23.442Z,8.31
2023-05-04T02:36:09.141Z,8.31
2023-05-04T02:38:58.999Z,8.31
2023-05-04T02:41:44.001Z,8.30
2023-05-04T02:44:29.426Z,8.30
2023-05-04T02:47:14.958Z,8.24
2023-05-04T02:50:00.382Z,8.22
2023-05-04T02:52:45.609Z,8.17
2023-05-04T02:55:30.942Z,8.21
2023-05-04T02:58:16.386Z,8.15
2023-05-04T03:01:02.173Z,8.11
2023-05-04T03:03:47.557Z,8.08
2023-05-04T03:06:32.796Z,8.10
2023-05-04T03:09:17.971Z,8.10
2023-05-04T03:12:04.216Z,8.10
2023-05-04T03:14:49.273Z,8.12
2023-05-04T03:17:34.815Z,8.15
2023-05-04T03:20:23.508Z,8.16
2023-05-04T03:23:08.954Z,8.11
2023-05-04T03:25:54.297Z,8.02
2023-05-04T03:28:39.761Z,7.97
2023-05-04T03:31:25.238Z,7.94
2023-05-04T03:34:14.589Z,7.90
2023-05-04T03:36:59.928Z,7.94
2023-05-04T03:39:44.935Z,7.92
2023-05-04T03:42:30.311Z,7.93
2023-05-04T03:45:15.941Z,7.90
2023-05-04T03:48:01.144Z,7.87
2023-05-04T03:50:46.324Z,7.89
2023-05-04T03:53:35.580Z,7.89
2023-05-04T03:56:21.833Z,7.88
2023-05-04T03:59:07.058Z,7.91
2023-05-04T04:01:52.403Z,7.92
2023-05-04T04:04:37.942Z,7.96
2023-05-04T04:07:23.125Z,7.95
2023-05-04T04:10:09.575Z,8.02
2023-05-04T04:12:55.056Z,8.12
2023-05-04T04:15:40.906Z,8.21
2023-05-04T04:18:27.256Z,8.25
2023-05-04T04:21:13.159Z,8.30
2023-05-04T04:23:58.332Z,8.31
2023-05-04T04:26:44.152Z,8.33
2023-05-04T04:29:29.445Z,8.34
2023-05-04T04:32:15.579Z,8.39
2023-05-04T04:35:01.005Z,8.39
2023-05-04T04:37:46.049Z,8.44
2023-05-04T04:40:31.558Z,8.45
2023-05-04T04:43:16.908Z,8.45
2023-05-04T04:46:03.945Z,8.47
2023-05-04T04:48:49.147Z,8.52
2023-05-04T04:51:35.639Z,8.57
2023-05-04T04:54:21.016Z,8.61
2023-05-04T04:57:06.183Z,8.61
2023-05-04T04:59:53.130Z,8.65
2023-05-04T05:02:38.580Z,8.72
2023-05-04T05:05:25.245Z,8.83
2023-05-04T05:08:10.514Z,8.92
2023-05-04T05:10:56.264Z,9.00
2023-05-04T05:13:41.698Z,9.06
2023-05-04T05:16:27.355Z,9.09
2023-05-04T05:19:12.437Z,9.08
2023-05-04T05:21:57.839Z,9.03
2023-05-04T05:24:42.813Z,9.15
2023-05-04T05:27:29.266Z,9.34
2023-05-04T05:30:14.742Z,9.45
2023-05-04T05:33:00.131Z,9.50
2023-05-04T05:36:05.956Z,9.53
2023-05-04T05:38:52.355Z,9.60
2023-05-04T05:41:37.826Z,9.79
2023-05-04T05:44:23.129Z,9.91
2023-05-04T05:47:08.711Z,10.01
2023-05-04T05:49:54.487Z,10.17
2023-05-04T05:52:39.754Z,10.18
2023-05-04T05:55:24.909Z,10.13
2023-05-04T05:58:10.478Z,10.27
2023-05-04T06:00:55.670Z,10.37
2023-05-04T06:03:41.191Z,10.49
2023-05-04T06:06:26.862Z,10.50
2023-05-04T06:09:11.897Z,10.72
2023-05-04T06:11:58.016Z,10.86
2023-05-04T06:14:43.764Z,10.96
2023-05-04T06:17:29.245Z,11.02
2023-05-04T06:20:14.899Z,11.20
2023-05-04T06:23:00.271Z,11.39
2023-05-04T06:25:45.811Z,11.44
2023-05-04T06:28:31.771Z,11.26
2023-05-04T06:31:16.977Z,11.38
2023-05-04T06:34:02.243Z,11.57
2023-05-04T06:36:49.072Z,11.75
2023-05-04T06:39:34.629Z,11.75
2023-05-04T06:42:19.705Z,11.86
2023-05-04T06:45:07.540Z,11.96
2023-05-04T06:47:53.512Z,12.04
2023-05-04T06:50:39.395Z,12.18
2023-05-04T06:53:25.093Z,12.36
2023-05-04T06:56:10.502Z,12.45
2023-05-04T06:58:55.843Z,12.48
2023-05-04T07:01:41.485Z,12.59
2023-05-04T07:04:26.721Z,12.66
2023-05-04T07:07:12.109Z,12.46
2023-05-04T07:09:57.402Z,12.51
2023-05-04T07:12:43.526Z,12.66
2023-05-04T07:15:29.541Z,12.79
2023-05-04T07:18:14.799Z,12.92
2023-05-04T07:21:16.036Z,13.13
2023-05-04T07:24:06.859Z,13.23
2023-05-04T07:26:52.037Z,13.52
2023-05-04T07:29:37.354Z,13.70
2023-05-04T07:32:23.031Z,13.91
2023-05-04T07:35:08.892Z,14.05
2023-05-04T07:37:54.875Z,14.21
2023-05-04T07:40:40.190Z,14.06
2023-05-04T07:43:25.796Z,14.19
2023-05-04T07:46:11.951Z,14.17
2023-05-04T07:48:57.054Z,14.41
2023-05-04T07:51:42.678Z,14.58
2023-05-04T07:54:28.437Z,14.74
2023-05-04T07:57:13.836Z,14.86
2023-05-04T07:59:59.352Z,14.89
2023-05-04T08:02:44.760Z,15.04
2023-05-04T08:05:30.167Z,15.01
2023-05-04T08:08:15.561Z,15.02
2023-05-04T08:11:16.020Z,15.09
2023-05-04T08:14:05.512Z,15.01
2023-05-04T08:16:50.678Z,15.23
2023-05-04T08:19:35.901Z,15.34
2023-05-04T08:22:21.168Z,15.46
2023-05-04T08:25:07.500Z,15.19
2023-05-04T08:27:53.312Z,15.40
2023-05-04T08:30:38.877Z,15.52
2023-05-04T08:33:24.214Z,15.37
2023-05-04T08:36:09.717Z,15.35
2023-05-04T08:38:54.789Z,15.64
2023-05-04T08:41:46.489Z,15.96
2023-05-04T08:44:31.752Z,16.09
2023-05-04T08:47:17.592Z,16.27
2023-05-04T08:50:02.865Z,16.37
2023-05-04T08:52:48.895Z,16.44
2023-05-04T08:55:38.058Z,16.51
2023-05-04T08:58:24.583Z,16.74
2023-05-04T09:01:10.706Z,16.53
2023-05-04T09:03:57.045Z,16.41
2023-05-04T09:06:42.310Z,16.42
2023-05-04T09:09:28.839Z,16.66
2023-05-04T09:12:14.447Z,16.70
2023-05-04T09:15:05.871Z,16.72
2023-05-04T09:18:01.154Z,16.66
2023-05-04T09:20:47.800Z,16.72
2023-05-04T09:23:33.610Z,16.87
2023-05-04T09:26:33.316Z,16.93
2023-05-04T09:29:18.868Z,16.94
2023-05-04T09:32:04.940Z,17.12
2023-05-04T09:34:53.993Z,17.31
2023-05-04T09:37:46.962Z,17.23
2023-05-04T09:40:36.186Z,17.06
2023-05-04T09:43:22.042Z,17.22
2023-05-04T09:46:08.635Z,17.22
2023-05-04T09:48:56.620Z,17.21
2023-05-04T09:51:42.895Z,17.23
2023-05-04T09:54:29.826Z,17.22
2023-05-04T09:57:16.077Z,17.12
2023-05-04T10:00:03.042Z,17.07
2023-05-04T10:02:53.058Z,17.27
2023-05-04T10:05:40.015Z,17.37
2023-05-04T10:08:26.180Z,17.10
2023-05-04T10:11:12.600Z,17.11
2023-05-04T10:13:58.166Z,17.23
2023-05-04T10:17:17.199Z,17.16
2023-05-04T10:20:38.075Z,17.53
2023-05-04T10:24:07.351Z,17.70
2023-05-04T10:26:59.288Z,17.60
2023-05-04T10:29:52.172Z,17.53
2023-05-04T10:32:39.905Z,17.62
2023-05-04T10:35:25.922Z,17.66
2023-05-04T10:38:12.492Z,17.77
2023-05-04T10:40:58.051Z,17.95
2023-05-04T10:43:48.672Z,18.02
2023-05-04T10:46:33.754Z,18.02
2023-05-04T10:49:19.967Z,18.06
2023-05-04T10:52:16.048Z,18.07
2023-05-04T10:55:02.319Z,18.20
2023-05-04T10:57:53.781Z,18.36
2023-05-04T11:00:41.256Z,18.35
2023-05-04T11:03:26.961Z,18.37
2023-05-04T11:06:17.392Z,18.36
2023-05-04T11:09:03.653Z,18.30
2023-05-04T11:11:49.936Z,18.22
2023-05-04T11:14:41.148Z,18.43
2023-05-04T11:17:28.548Z,18.44
2023-05-04T11:20:27.147Z,18.40
2023-05-04T11:23:16.482Z,18.45
2023-05-04T11:26:07.398Z,18.58
2023-05-04T11:28:54.052Z,18.65
2023-05-04T11:31:39.787Z,18.67
2023-05-04T11:34:25.326Z,18.82
2023-05-04T11:37:10.611Z,18.84
2023-05-04T11:39:56.729Z,18.95
2023-05-04T11:42:42.982Z,18.99
2023-05-04T11:45:31.077Z,19.10
2023-05-04T11:48:18.617Z,19.22
2023-05-04T11:51:05.345Z,19.31
2023-05-04T11:53:51.098Z,18.99
2023-05-04T11:56:42.506Z,18.72
2023-05-04T11:59:27.596Z,18.78
2023-05-04T12:02:17.248Z,18.90
2023-05-04T12:05:03.256Z,19.10
2023-05-04T12:07:48.805Z,19.27
2023-05-04T12:10:36.653Z,19.30
2023-05-04T12:13:22.972Z,19.29
2023-05-04T12:16:15.779Z,19.28
2023-05-04T12:19:10.660Z,19.42
2023-05-04T12:21:58.373Z,19.38
2023-05-04T12:24:44.151Z,19.49
2023-05-04T12:27:29.621Z,19.67
2023-05-04T12:30:14.920Z,19.64
2023-05-04T12:33:00.127Z,19.49
2023-05-04T12:35:45.216Z,19.58
2023-05-04T12:38:30.532Z,19.63
2023-05-04T12:41:16.038Z,19.61
2023-05-04T12:44:01.503Z,19.34
2023-05-04T12:46:47.033Z,18.97
2023-05-04T12:49:32.245Z,19.16
2023-05-04T12:52:17.542Z,19.31
2023-05-04T12:55:03.300Z,19.24
2023-05-04T12:57:48.391Z,19.16
2023-05-04T13:00:38.553Z,19.07
2023-05-04T13:03:24.094Z,19.02
2023-05-04T13:06:09.616Z,19.10
2023-05-04T13:08:55.044Z,19.02
2023-05-04T13:11:40.558Z,18.76
2023-05-04T13:14:25.868Z,18.95
2023-05-04T13:17:11.891Z,19.01
2023-05-04T13:19:56.995Z,19.15
2023-05-04T13:22:46.860Z,19.31
2023-05-04T13:25:34.609Z,19.53
2023-05-04T13:28:19.789Z,19.77
2023-05-04T13:31:05.752Z,19.66
2023-05-04T13:33:51.026Z,19.69
2023-05-04T13:36:36.428Z,19.72
2023-05-04T13:39:22.608Z,19.75
2023-05-04T13:42:08.161Z,19.78
2023-05-04T13:44:53.362Z,19.71
2023-05-04T13:47:40.100Z,19.73
2023-05-04T13:50:25.653Z,19.58
2023-05-04T13:53:13.831Z,19.46
2023-05-04T13:55:59.162Z,19.54
2023-05-04T13:58:44.482Z,19.75
2023-05-04T14:01:29.730Z,19.34
2023-05-04T14:04:14.878Z,19.56
2023-05-04T14:07:00.212Z,19.64
2023-05-04T14:09:45.958Z,19.67
2023-05-04T14:12:31.172Z,19.74
2023-05-04T14:15:16.749Z,19.73
2023-05-04T14:18:04.834Z,19.75
2023-05-04T14:20:50.890Z,19.82
2023-05-04T14:23:36.269Z,19.63
2023-05-04T14:26:21.437Z,19.56
2023-05-04T14:29:06.551Z,19.56
2023-05-04T14:31:52.748Z,19.52
2023-05-04T14:34:37.917Z,19.56
2023-05-04T14:37:23.164Z,19.68
2023-05-04T14:40:12.409Z,19.57
2023-05-04T14:42:59.598Z,19.61
2023-05-04T14:45:45.157Z,19.53
2023-05-04T14:48:33.347Z,19.36
2023-05-04T14:51:26.493Z,19.19
2023-05-04T14:54:11.856Z,19.42
2023-05-04T14:56:58.823Z,19.66
2023-05-04T14:59:44.329Z,19.65
2023-05-04T15:02:29.764Z,19.82
2023-05-04T15:05:15.653Z,19.88
2023-05-04T15:08:01.584Z,19.70
2023-05-04T15:10:46.645Z,19.76
2023-05-04T15:13:32.461Z,19.93
2023-05-04T15:16:20.435Z,20.15
2023-05-04T15:19:06.440Z,20.21
2023-05-04T15:21:52.719Z,20.10
2023-05-04T15:24:37.862Z,20.04
2023-05-04T15:27:24.044Z,19.99
2023-05-04T15:30:11.563Z,19.95
2023-05-04T15:32:57.148Z,19.98
2023-05-04T15:35:42.860Z,19.87
2023-05-04T15:38:28.618Z,19.70
2023-05-04T15:41:14.199Z,19.70
2023-05-04T15:43:59.709Z,19.72
2023-05-04T15:46:45.445Z,19.69
2023-05-04T15:49:32.006Z,19.71
2023-05-04T15:52:17.394Z,19.79
2023-05-04T15:55:16.402Z,19.81
2023-05-04T15:58:08.300Z,19.78
2023-05-04T16:00:53.858Z,19.68
2023-05-04T16:03:39.437Z,19.48
2023-05-04T16:06:24.718Z,19.49
2023-05-04T16:09:09.987Z,19.50
2023-05-04T16:11:55.260Z,19.56
2023-05-04T16:14:40.603Z,19.60
2023-05-04T16:17:26.137Z,19.67
2023-05-04T16:20:11.648Z,19.75
2023-05-04T16:22:57.000Z,19.69
2023-05-04T16:25:42.794Z,19.65
2023-05-04T16:28:28.671Z,19.56
2023-05-04T16:31:15.114Z,19.56
2023-05-04T16:34:00.518Z,19.58
2023-05-04T16:36:45.922Z,19.57
2023-05-04T16:39:31.788Z,19.57
2023-05-04T16:42:18.565Z,19.56
2023-05-04T16:45:06.038Z,19.48
2023-05-04T16:47:52.184Z,19.39
2023-05-04T16:50:38.262Z,19.30
2023-05-04T16:53:23.649Z,19.20
2023-05-04T16:56:08.877Z,19.09
2023-05-04T16:58:54.586Z,18.99
2023-05-04T17:01:41.201Z,18.95
2023-05-04T17:04:27.527Z,18.86
2023-05-04T17:07:13.072Z,18.80
2023-05-04T17:09:58.363Z,18.79
2023-05-04T17:12:43.755Z,18.81
2023-05-04T17:15:29.113Z,18.83
2023-05-04T17:18:14.257Z,18.83
2023-05-04T17:20:59.649Z,18.82
2023-05-04T17:23:45.128Z,18.81
2023-05-04T17:26:30.693Z,18.77
2023-05-04T17:29:16.491Z,18.74
2023-05-04T17:32:02.072Z,18.69
2023-05-04T17:34:47.364Z,18.64
2023-05-04T17:37:33.044Z,18.59
2023-05-04T17:40:18.483Z,18.51
2023-05-04T17:43:05.237Z,18.44
2023-05-04T17:45:50.411Z,18.38
2023-05-04T17:48:36.677Z,18.33
2023-05-04T17:51:22.815Z,18.29
2023-05-04T17:54:08.142Z,18.23
2023-05-04T17:56:53.793Z,18.13
2023-05-04T17:59:39.174Z,18.07
2023-05-04T18:02:24.383Z,18.00
2023-05-04T18:05:09.908Z,17.94
2023-05-04T18:07:58.629Z,17.90
2023-05-04T18:10:43.784Z,17.86
2023-05-04T18:13:29.378Z,17.81
2023-05-04T18:16:14.894Z,17.78
2023-05-04T18:19:00.407Z,17.73
2023-05-04T18:21:45.876Z,17.68
2023-05-04T18:24:33.319Z,17.64
2023-05-04T18:27:19.304Z,17.57
2023-05-04T18:30:05.769Z,17.52
2023-05-04T18:32:51.916Z,17.48
2023-05-04T18:35:37.397Z,17.42
2023-05-04T18:38:22.796Z,17.39
2023-05-04T18:41:08.052Z,17.36
2023-05-04T18:43:55.725Z,17.33
2023-05-04T18:46:40.936Z,17.31
2023-05-04T18:49:26.165Z,17.28
2023-05-04T18:52:11.509Z,17.22
2023-05-04T18:54:57.030Z,17.10
2023-05-04T18:57:42.204Z,17.03
2023-05-04T19:00:27.566Z,16.95
2023-05-04T19:03:12.811Z,16.90
2023-05-04T19:05:58.238Z,16.89
2023-05-04T19:08:43.486Z,16.79
2023-05-04T19:11:29.178Z,16.75
2023-05-04T19:14:15.079Z,16.69
2023-05-04T19:17:01.062Z,16.66
2023-05-04T19:19:46.688Z,16.63
2023-05-04T19:22:31.964Z,16.61
2023-05-04T19:25:33.334Z,16.60
2023-05-04T19:28:19.996Z,16.56
2023-05-04T19:31:05.486Z,16.54
2023-05-04T19:33:52.422Z,16.49
2023-05-04T19:36:37.914Z,16.44
2023-05-04T19:39:23.233Z,16.42
2023-05-04T19:42:08.679Z,16.38
2023-05-04T19:44:53.994Z,16.36
2023-05-04T19:47:39.532Z,16.36
2023-05-04T19:50:25.127Z,16.29
2023-05-04T19:53:10.986Z,16.28
2023-05-04T19:55:56.411Z,16.27
2023-05-04T19:58:42.024Z,16.24
2023-05-04T20:01:27.069Z,16.23
2023-05-04T20:04:12.717Z,16.19
2023-05-04T20:06:57.933Z,16.15
2023-05-04T20:09:43.183Z,16.11
2023-05-04T20:12:28.714Z,16.08
2023-05-04T20:15:13.977Z,16.04
2023-05-04T20:17:59.274Z,16.02
2023-05-04T20:20:44.397Z,16.03
2023-05-04T20:23:29.931Z,16.02
2023-05-04T20:26:15.360Z,16.00
2023-05-04T20:29:00.722Z,15.99
2023-05-04T20:31:46.341Z,15.97
2023-05-04T20:34:31.842Z,15.94
2023-05-04T20:37:16.935Z,15.89
2023-05-04T20:40:02.486Z,15.85
2023-05-04T20:42:47.804Z,15.75
2023-05-04T20:45:34.314Z,15.68
2023-05-04T20:48:19.264Z,15.60
2023-05-04T20:53:58.531Z,15.44
2023-05-04T20:56:44.073Z,15.41
2023-05-04T20:59:29.482Z,15.36
2023-05-04T21:02:14.950Z,15.30
2023-05-04T21:05:02.671Z,15.23
2023-05-04T21:07:47.772Z,15.16
2023-05-04T21:10:33.748Z,15.09
2023-05-04T21:13:20.800Z,15.05
2023-05-04T21:16:06.297Z,14.98
2023-05-04T21:18:51.376Z,14.90
2023-05-04T21:21:40.641Z,14.84
2023-05-04T21:24:26.161Z,14.78
2023-05-04T21:27:11.316Z,14.78
2023-05-04T21:29:56.971Z,14.72
2023-05-04T21:32:42.300Z,14.68
2023-05-04T21:35:31.327Z,14.61
2023-05-04T21:38:10.886Z,14.53
2023-05-04T21:40:56.169Z,14.48
2023-05-04T21:43:42.280Z,14.45
2023-05-04T21:46:27.684Z,14.42
2023-05-04T21:49:12.724Z,14.31
2023-05-04T21:51:58.163Z,14.27
2023-05-04T21:54:43.567Z,14.23
2023-05-04T21:57:32.631Z,14.21
2023-05-04T22:00:18.475Z,14.20
2023-05-04T22:03:03.622Z,14.16
2023-05-04T22:05:57.508Z,14.12
2023-05-04T22:08:42.585Z,14.07
2023-05-04T22:11:28.149Z,13.97
2023-05-04T22:14:13.302Z,13.93
2023-05-04T22:16:59.453Z,13.84
2023-05-04T22:19:45.096Z,13.77
2023-05-04T22:22:30.471Z,13.74
2023-05-04T22:25:15.982Z,13.67
2023-05-04T22:28:01.256Z,13.61
2023-05-04T22:30:49.134Z,13.58
2023-05-04T22:33:34.163Z,13.52
2023-05-04T22:36:19.568Z,13.45
2023-05-04T22:39:04.921Z,13.39
2023-05-04T22:41:50.374Z,13.35
2023-05-04T22:44:35.679Z,13.27
2023-05-04T22:47:20.921Z,13.25
2023-05-04T22:50:07.777Z,13.19
2023-05-04T22:52:53.077Z,13.17
2023-05-04T22:55:38.636Z,13.15
2023-05-04T22:58:23.872Z,13.08
2023-05-04T23:01:10.417Z,13.03
2023-05-04T23:03:55.967Z,12.91
2023-05-04T23:06:41.432Z,12.86
2023-05-04T23:09:27.020Z,12.81
2023-05-04T23:12:13.023Z,12.75
2023-05-04T23:14:57.910Z,12.67
2023-05-04T23:17:43.120Z,12.62
2023-05-04T23:20:28.720Z,12.58
2023-05-04T23:23:13.874Z,12.53
2023-05-04T23:25:59.284Z,12.48
2023-05-04T23:28:44.648Z,12.43
2023-05-04T23:31:30.110Z,12.43
2023-05-04T23:34:15.398Z,12.47
2023-05-04T23:37:01.015Z,12.43
2023-05-04T23:39:47.031Z,12.40
2023-05-04T23:42:32.102Z,12.39
2023-05-04T23:45:17.660Z,12.39
2023-05-04T23:48:02.900Z,12.32
2023-05-04T23:50:52.822Z,12.34
2023-05-04T23:53:37.968Z,12.39
2023-05-04T23:56:23.695Z,12.36
2023-05-04T23:59:10.435Z,12.36
